createdAt,value
2018-06-22T00:00:56.025Z,14.29
2018-06-22T00:03:24.069Z,14.29
2018-06-22T00:05:52.072Z,14.27
2018-06-22T00:08:20.062Z,14.21
2018-06-22T00:10:48.139Z,14.18
2018-06-22T00:13:16.140Z,14.15
2018-06-22T00:15:44.140Z,14.10
2018-06-22T00:18:12.137Z,14.06
2018-06-22T00:20:40.092Z,14.08
2018-06-22T00:23:08.177Z,14.10
2018-06-22T00:25:36.231Z,14.06
2018-06-22T00:28:04.252Z,14.06
2018-06-22T00:30:32.277Z,14.01
2018-06-22T00:33:00.275Z,13.96
2018-06-22T00:35:28.305Z,13.95
2018-06-22T00:37:56.327Z,13.95
2018-06-22T00:40:24.286Z,13.92
2018-06-22T00:42:52.279Z,13.98
2018-06-22T00:45:20.259Z,14.04
2018-06-22T00:47:48.319Z,13.90
2018-06-22T00:50:16.257Z,13.85
2018-06-22T00:52:44.286Z,13.80
2018-06-22T00:55:12.294Z,13.86
2018-06-22T00:57:40.404Z,13.86
2018-06-22T01:00:08.445Z,13.78
2018-06-22T01:02:36.441Z,13.74
2018-06-22T01:05:04.538Z,13.78
2018-06-22T01:07:32.553Z,13.79
2018-06-22T01:10:00.680Z,13.77
2018-06-22T01:12:28.633Z,13.74
2018-06-22T01:14:56.607Z,13.74
2018-06-22T01:17:24.576Z,13.76
2018-06-22T01:19:52.571Z,13.72
2018-06-22T01:22:20.614Z,13.66
2018-06-22T01:24:48.628Z,13.56
2018-06-22T01:27:16.665Z,13.58
2018-06-22T01:29:44.749Z,13.59
2018-06-22T01:32:12.826Z,13.60
2018-06-22T01:34:40.865Z,13.60
2018-06-22T01:37:08.959Z,13.56
2018-06-22T01:39:36.922Z,13.49
2018-06-22T01:42:04.980Z,13.45
2018-06-22T01:44:33.051Z,13.58
2018-06-22T01:47:01.010Z,13.59
2018-06-22T01:49:29.029Z,13.54
2018-06-22T01:51:57.029Z,13.84
2018-06-22T01:54:25.098Z,13.58
2018-06-22T01:56:53.093Z,13.46
2018-06-22T01:59:21.117Z,13.41
2018-06-22T02:01:49.130Z,13.37
2018-06-22T02:04:17.117Z,13.33
2018-06-22T02:06:45.132Z,13.31
2018-06-22T02:09:13.525Z,13.35
2018-06-22T02:11:41.550Z,13.31
2018-06-22T02:14:09.625Z,13.24
2018-06-22T02:16:37.943Z,13.21
2018-06-22T02:19:05.953Z,13.19
2018-06-22T02:21:33.973Z,13.15
2018-06-22T02:24:01.987Z,13.13
2018-06-22T02:26:30.080Z,13.14
2018-06-22T02:28:58.147Z,13.20
2018-06-22T02:31:26.129Z,13.17
2018-06-22T02:33:54.164Z,13.12
2018-06-22T02:36:22.204Z,13.11
2018-06-22T02:38:50.171Z,13.14
2018-06-22T02:41:18.315Z,13.18
2018-06-22T02:43:46.509Z,13.11
2018-06-22T02:46:14.531Z,13.14
2018-06-22T02:48:42.610Z,13.23
2018-06-22T02:51:10.688Z,13.26
2018-06-22T02:53:38.778Z,13.27
2018-06-22T02:56:06.857Z,13.28
2018-06-22T02:58:34.830Z,13.30
2018-06-22T03:01:02.909Z,13.29
2018-06-22T03:03:31.108Z,13.36
2018-06-22T03:05:59.132Z,13.47
2018-06-22T03:08:27.169Z,13.54
2018-06-22T03:10:55.171Z,13.66
2018-06-22T03:13:23.237Z,13.75
2018-06-22T03:15:51.324Z,14.28
2018-06-22T03:18:19.380Z,15.14
2018-06-22T03:20:47.464Z,16.14
2018-06-22T03:23:15.516Z,16.92
2018-06-22T03:25:43.585Z,17.29
2018-06-22T03:28:11.570Z,17.37
2018-06-22T03:30:39.665Z,17.32
2018-06-22T03:33:08.003Z,17.89
2018-06-22T03:35:35.976Z,18.46
2018-06-22T03:38:04.018Z,19.12
2018-06-22T03:40:32.050Z,19.31
2018-06-22T03:43:00.060Z,19.29
2018-06-22T03:45:28.165Z,19.55
2018-06-22T03:47:56.254Z,19.53
2018-06-22T03:50:24.332Z,19.35
2018-06-22T03:52:52.484Z,19.91
2018-06-22T03:55:20.446Z,20.13
2018-06-22T03:57:48.757Z,20.38
2018-06-22T04:00:16.840Z,20.73
2018-06-22T04:02:44.906Z,20.27
2018-06-22T04:05:12.974Z,19.96
2018-06-22T04:07:41.032Z,20.37
2018-06-22T04:10:09.225Z,21.02
2018-06-22T04:12:37.363Z,20.75
2018-06-22T04:15:05.478Z,19.64
2018-06-22T04:17:37.961Z,18.72
2018-06-22T04:20:05.952Z,19.49
2018-06-22T04:22:34.084Z,19.73
2018-06-22T04:25:02.333Z,20.12
2018-06-22T04:27:30.393Z,20.37
2018-06-22T04:29:58.436Z,20.06
2018-06-22T04:32:26.458Z,20.93
2018-06-22T04:34:54.515Z,21.19
2018-06-22T04:37:22.678Z,20.67
2018-06-22T04:39:50.807Z,20.34
2018-06-22T04:42:18.854Z,20.08
2018-06-22T04:44:46.931Z,19.35
2018-06-22T04:47:15.020Z,18.69
2018-06-22T04:49:43.031Z,18.69
2018-06-22T04:52:11.082Z,18.70
2018-06-22T04:54:39.519Z,18.35
2018-06-22T04:57:07.872Z,18.20
2018-06-22T04:59:36.144Z,17.65
2018-06-22T05:02:04.961Z,17.07
2018-06-22T05:04:34.293Z,17.07
2018-06-22T05:07:03.937Z,16.91
2018-06-22T05:09:32.751Z,17.15
2018-06-22T05:12:01.125Z,17.06
2018-06-22T05:14:29.417Z,17.54
2018-06-22T05:16:57.795Z,17.83
2018-06-22T05:19:26.273Z,18.24
2018-06-22T05:21:54.758Z,18.55
2018-06-22T05:24:22.999Z,18.63
2018-06-22T05:26:51.608Z,18.99
2018-06-22T05:29:20.544Z,20.14
2018-06-22T05:31:49.120Z,21.02
2018-06-22T05:34:17.608Z,21.56
2018-06-22T05:36:45.849Z,21.20
2018-06-22T05:39:14.141Z,20.28
2018-06-22T05:41:42.786Z,20.60
2018-06-22T05:44:11.153Z,20.60
2018-06-22T05:46:39.873Z,21.06
2018-06-22T05:49:08.747Z,20.89
2018-06-22T05:51:37.633Z,21.55
2018-06-22T05:54:06.713Z,21.97
2018-06-22T05:56:35.539Z,21.61
2018-06-22T05:59:03.754Z,22.06
2018-06-22T06:01:32.048Z,22.25
2018-06-22T06:04:00.698Z,22.75
2018-06-22T06:06:29.346Z,22.45
2018-06-22T06:08:57.711Z,21.74
2018-06-22T06:11:26.231Z,21.71
2018-06-22T06:13:54.604Z,22.13
2018-06-22T06:16:22.960Z,22.72
2018-06-22T06:18:52.061Z,22.27
2018-06-22T06:21:20.653Z,22.29
2018-06-22T06:23:49.074Z,22.06
2018-06-22T06:26:17.656Z,23.04
2018-06-22T06:28:45.865Z,23.52
2018-06-22T06:31:14.075Z,23.09
2018-06-22T06:33:42.582Z,23.24
2018-06-22T06:36:10.997Z,23.59
2018-06-22T06:38:39.477Z,24.35
2018-06-22T06:41:07.891Z,23.94
2018-06-22T06:43:36.356Z,24.32
2018-06-22T06:46:05.088Z,24.02
2018-06-22T06:48:33.420Z,24.18
2018-06-22T06:51:01.700Z,24.36
2018-06-22T06:53:29.914Z,24.76
2018-06-22T06:55:58.233Z,24.90
2018-06-22T06:58:26.819Z,25.67
2018-06-22T07:00:55.480Z,25.53
2018-06-22T07:03:23.739Z,25.51
2018-06-22T07:05:51.900Z,25.80
2018-06-22T07:08:20.802Z,25.20
2018-06-22T07:10:49.681Z,25.11
2018-06-22T07:13:18.109Z,25.34
2018-06-22T07:15:46.367Z,24.91
2018-06-22T07:18:14.549Z,24.37
2018-06-22T07:20:42.813Z,24.77
2018-06-22T07:23:11.001Z,25.33
2018-06-22T07:25:39.324Z,25.44
2018-06-22T07:28:07.853Z,25.44
2018-06-22T07:30:36.384Z,24.96
2018-06-22T07:33:05.213Z,25.16
2018-06-22T07:35:34.136Z,25.60
2018-06-22T07:38:02.285Z,25.64
2018-06-22T07:40:30.508Z,25.82
2018-06-22T07:42:58.765Z,26.12
2018-06-22T07:45:27.066Z,26.06
2018-06-22T07:47:55.449Z,26.35
2018-06-22T07:50:24.047Z,26.66
2018-06-22T07:52:52.331Z,26.73
2018-06-22T07:55:20.786Z,26.35
2018-06-22T07:57:49.251Z,26.85
2018-06-22T08:00:17.902Z,27.18
2018-06-22T08:02:46.244Z,27.32
2018-06-22T08:05:18.104Z,28.01
2018-06-22T08:07:47.022Z,28.32
2018-06-22T08:10:15.746Z,27.85
2018-06-22T08:12:44.649Z,27.91
2018-06-22T08:15:13.177Z,27.87
2018-06-22T08:17:41.871Z,28.00
2018-06-22T08:20:10.552Z,27.85
2018-06-22T08:22:39.198Z,28.38
2018-06-22T08:25:07.904Z,27.82
2018-06-22T08:27:36.491Z,27.56
2018-06-22T08:30:05.582Z,28.30
2018-06-22T08:32:34.242Z,28.95
2018-06-22T08:35:02.644Z,27.77
2018-06-22T08:37:30.953Z,27.78
2018-06-22T08:39:59.527Z,27.88
2018-06-22T08:42:28.466Z,28.56
2018-06-22T08:44:56.938Z,28.55
2018-06-22T08:47:25.609Z,28.22
2018-06-22T08:49:54.104Z,28.39
2018-06-22T08:52:22.844Z,29.00
2018-06-22T08:54:51.537Z,29.49
2018-06-22T08:57:19.976Z,28.72
2018-06-22T08:59:48.489Z,27.65
2018-06-22T09:02:16.810Z,27.67
2018-06-22T09:04:45.188Z,28.60
2018-06-22T09:07:13.888Z,29.12
2018-06-22T09:09:42.418Z,29.17
2018-06-22T09:12:10.837Z,28.82
2018-06-22T09:14:39.216Z,28.49
2018-06-22T09:17:07.715Z,28.28
2018-06-22T09:19:36.176Z,26.95
2018-06-22T09:22:05.990Z,27.20
2018-06-22T09:24:34.578Z,27.77
2018-06-22T09:27:02.939Z,27.03
2018-06-22T09:29:32.045Z,26.64
2018-06-22T09:32:00.355Z,26.57
2018-06-22T09:34:28.460Z,26.98
2018-06-22T09:36:56.705Z,28.16
2018-06-22T09:39:24.991Z,29.35
2018-06-22T09:41:53.362Z,30.26
2018-06-22T09:44:31.880Z,30.31
2018-06-22T09:47:00.056Z,30.52
2018-06-22T09:49:28.547Z,30.05
2018-06-22T09:51:57.361Z,29.48
2018-06-22T09:54:26.244Z,29.73
2018-06-22T09:56:54.502Z,28.88
2018-06-22T09:59:23.490Z,28.05
2018-06-22T10:01:52.682Z,27.96
2018-06-22T10:04:22.019Z,27.71
2018-06-22T10:06:51.121Z,28.44
2018-06-22T10:09:19.434Z,28.12
2018-06-22T10:11:47.993Z,28.21
2018-06-22T10:14:16.518Z,28.24
2018-06-22T10:16:45.014Z,27.87
2018-06-22T10:19:13.556Z,27.78
2018-06-22T10:21:41.809Z,29.15
2018-06-22T10:24:10.299Z,30.14
2018-06-22T10:26:38.475Z,31.06
2018-06-22T10:29:06.894Z,29.90
2018-06-22T10:31:35.514Z,30.93
2018-06-22T10:34:04.182Z,31.36
2018-06-22T10:36:32.317Z,31.30
2018-06-22T10:39:00.525Z,31.11
2018-06-22T10:41:29.229Z,30.85
2018-06-22T10:43:57.546Z,30.72
2018-06-22T10:46:25.979Z,30.24
2018-06-22T10:48:54.370Z,30.31
2018-06-22T10:51:22.696Z,30.57
2018-06-22T10:53:51.202Z,30.57
2018-06-22T10:56:19.684Z,30.25
2018-06-22T10:58:48.318Z,30.01
2018-06-22T11:01:16.584Z,29.26
2018-06-22T11:03:44.903Z,28.89
2018-06-22T11:06:13.281Z,28.00
2018-06-22T11:08:41.704Z,26.60
2018-06-22T11:11:10.138Z,25.75
2018-06-22T11:13:38.556Z,25.35
2018-06-22T11:16:07.123Z,25.15
2018-06-22T11:18:35.442Z,25.10
2018-06-22T11:21:04.063Z,24.90
2018-06-22T11:23:32.572Z,24.73
2018-06-22T11:26:01.103Z,24.68
2018-06-22T11:28:29.629Z,24.45
2018-06-22T11:30:58.174Z,24.61
2018-06-22T11:33:26.682Z,24.81
2018-06-22T11:35:54.839Z,24.79
2018-06-22T11:41:02.488Z,24.71
2018-06-22T11:43:30.927Z,24.83
2018-06-22T11:45:59.218Z,24.86
2018-06-22T11:48:27.386Z,24.67
2018-06-22T11:50:55.846Z,24.44
2018-06-22T11:53:24.304Z,24.38
2018-06-22T11:55:52.595Z,24.40
2018-06-22T11:58:21.031Z,24.23
2018-06-22T12:00:49.749Z,24.35
2018-06-22T12:03:18.238Z,24.60
2018-06-22T12:05:46.369Z,24.52
2018-06-22T12:08:14.610Z,24.67
2018-06-22T12:10:42.882Z,24.79
2018-06-22T12:13:11.240Z,25.37
2018-06-22T12:15:40.150Z,25.82
2018-06-22T12:18:08.343Z,25.82
2018-06-22T12:20:36.776Z,25.64
2018-06-22T12:23:05.064Z,25.83
2018-06-22T12:25:33.506Z,25.83
2018-06-22T12:28:01.999Z,25.68
2018-06-22T12:30:30.481Z,25.94
2018-06-22T12:32:59.005Z,26.23
2018-06-22T12:35:27.333Z,26.26
2018-06-22T12:37:57.039Z,26.30
2018-06-22T12:40:25.380Z,26.23
2018-06-22T12:45:50.950Z,26.23
2018-06-22T12:48:20.166Z,26.08
2018-06-22T12:50:48.706Z,25.74
2018-06-22T12:53:17.074Z,25.67
2018-06-22T12:55:45.274Z,25.75
2018-06-22T12:58:13.672Z,26.18
2018-06-22T13:00:42.153Z,26.46
2018-06-22T13:03:10.497Z,26.55
2018-06-22T13:05:38.697Z,26.29
2018-06-22T13:08:07.133Z,26.01
2018-06-22T13:10:35.271Z,25.81
2018-06-22T13:13:03.464Z,25.78
2018-06-22T13:15:31.958Z,25.62
2018-06-22T13:18:00.153Z,25.81
2018-06-22T13:20:28.574Z,25.82
2018-06-22T13:22:57.304Z,25.64
2018-06-22T13:25:25.894Z,25.26
2018-06-22T13:27:54.160Z,24.97
2018-06-22T13:30:22.949Z,24.71
2018-06-22T13:32:51.287Z,24.82
2018-06-22T13:35:19.549Z,24.63
2018-06-22T13:37:48.069Z,24.45
2018-06-22T13:40:16.636Z,24.44
2018-06-22T13:42:44.980Z,24.82
2018-06-22T13:45:13.301Z,24.78
2018-06-22T13:47:42.232Z,24.85
2018-06-22T13:50:10.566Z,25.29
2018-06-22T13:52:41.841Z,24.72
2018-06-22T13:55:10.791Z,24.55
2018-06-22T13:57:39.656Z,24.74
2018-06-22T14:00:08.623Z,24.74
2018-06-22T14:02:37.066Z,24.63
2018-06-22T14:05:11.516Z,24.74
2018-06-22T14:07:39.855Z,25.26
2018-06-22T14:10:08.439Z,25.18
2018-06-22T14:12:36.787Z,25.07
2018-06-22T14:15:05.294Z,25.19
2018-06-22T14:17:33.624Z,24.61
2018-06-22T14:20:02.412Z,24.33
2018-06-22T14:22:30.813Z,24.45
2018-06-22T14:24:59.252Z,24.56
2018-06-22T14:27:27.344Z,24.51
2018-06-22T14:29:55.562Z,24.44
2018-06-22T14:32:24.012Z,24.19
2018-06-22T14:34:52.673Z,24.12
2018-06-22T14:37:20.937Z,23.91
2018-06-22T14:39:49.204Z,23.74
2018-06-22T14:42:17.446Z,23.76
2018-06-22T14:44:46.395Z,23.78
2018-06-22T14:47:14.819Z,23.88
2018-06-22T14:49:43.031Z,23.85
2018-06-22T14:52:11.413Z,23.88
2018-06-22T14:54:45.336Z,23.60
2018-06-22T14:57:20.308Z,23.46
2018-06-22T14:59:54.129Z,23.61
2018-06-22T15:02:28.457Z,23.62
2018-06-22T15:05:02.552Z,23.74
2018-06-22T15:07:36.370Z,23.71
2018-06-22T15:10:04.560Z,23.79
2018-06-22T15:12:32.815Z,23.70
2018-06-22T15:15:01.241Z,23.46
2018-06-22T15:17:33.914Z,23.26
2018-06-22T15:20:02.269Z,22.59
2018-06-22T15:22:30.573Z,21.93
2018-06-22T15:24:58.894Z,21.64
2018-06-22T15:27:27.064Z,21.21
2018-06-22T15:29:55.480Z,21.00
2018-06-22T15:32:23.776Z,20.54
2018-06-22T20:34:49.086Z,15.32
2018-06-22T20:37:23.023Z,15.30
2018-06-22T20:39:56.955Z,15.32
2018-06-22T20:42:30.546Z,15.34
2018-06-22T20:45:04.622Z,15.33
2018-06-22T20:47:38.670Z,15.40
2018-06-22T20:50:12.337Z,15.42
2018-06-22T20:52:40.469Z,15.42
2018-06-22T20:55:08.842Z,15.46
2018-06-22T20:57:37.106Z,15.47
2018-06-22T21:00:08.878Z,15.48
2018-06-22T21:02:38.200Z,15.53
2018-06-22T21:05:06.411Z,15.60
2018-06-22T21:07:34.763Z,15.68
2018-06-22T21:10:03.191Z,15.71
2018-06-22T21:12:40.411Z,15.75
2018-06-22T21:14:59.643Z,15.89
2018-06-22T21:17:27.826Z,15.93
2018-06-22T21:19:56.095Z,15.81
2018-06-22T21:22:24.151Z,15.79
2018-06-22T21:24:52.509Z,15.74
2018-06-22T21:28:31.041Z,15.77
2018-06-22T21:31:04.538Z,15.47
2018-06-22T21:33:38.301Z,15.28
2018-06-22T21:36:12.374Z,15.18
2018-06-22T21:38:46.075Z,14.92
2018-06-22T21:41:14.246Z,14.89
2018-06-22T21:43:42.432Z,14.81
2018-06-22T21:46:10.454Z,14.67
2018-06-22T21:48:38.762Z,14.57
2018-06-22T21:51:07.018Z,14.51
2018-06-22T21:53:35.349Z,14.47
2018-06-22T21:56:03.808Z,14.31
2018-06-22T21:58:32.116Z,14.16
2018-06-22T22:01:00.205Z,14.16
2018-06-22T22:03:28.269Z,14.18
2018-06-22T22:05:56.737Z,14.17
2018-06-22T22:08:25.206Z,14.14
2018-06-22T22:10:59.197Z,14.08
2018-06-22T22:13:27.355Z,14.11
2018-06-22T22:15:55.415Z,14.13
2018-06-22T22:18:23.531Z,14.00
2018-06-22T22:20:51.634Z,13.97
2018-06-22T22:23:19.797Z,13.91
2018-06-22T22:25:48.539Z,13.90
2018-06-22T22:28:16.909Z,13.83
2018-06-22T22:30:45.126Z,13.76
2018-06-22T22:33:13.404Z,13.65
2018-06-22T22:35:41.659Z,13.59
2018-06-22T22:38:09.850Z,13.55
2018-06-22T22:40:37.984Z,13.56
2018-06-22T22:43:06.615Z,13.35
2018-06-22T22:45:34.670Z,13.31
2018-06-22T22:48:02.949Z,13.23
2018-06-22T22:50:31.098Z,13.23
2018-06-22T22:52:59.202Z,13.08
2018-06-22T22:55:27.378Z,13.06
2018-06-22T22:57:55.601Z,13.07
2018-06-22T23:00:24.077Z,13.10
2018-06-22T23:02:52.205Z,13.03
2018-06-22T23:05:20.283Z,13.01
2018-06-22T23:07:48.356Z,12.93
2018-06-22T23:10:16.592Z,12.95
2018-06-22T23:12:44.704Z,13.00
2018-06-22T23:15:12.942Z,12.92
2018-06-22T23:17:41.698Z,12.89
2018-06-22T23:20:09.829Z,12.88
2018-06-22T23:22:48.818Z,12.89
2018-06-22T23:25:16.996Z,12.84
2018-06-22T23:27:45.079Z,12.74
2018-06-22T23:30:13.229Z,12.63
2018-06-22T23:32:41.381Z,12.69
2018-06-22T23:35:09.456Z,12.71
2018-06-22T23:37:37.556Z,12.79
2018-06-22T23:40:09.511Z,12.71
2018-06-22T23:42:37.865Z,12.69
2018-06-22T23:45:05.983Z,12.72
2018-06-22T23:47:34.124Z,12.52
2018-06-22T23:50:03.347Z,12.48
2018-06-22T23:52:31.560Z,12.45
2018-06-22T23:54:59.779Z,12.43
2018-06-22T23:57:27.930Z,12.40
2018-06-22T23:59:56.202Z,12.44
